Time;durP1;ratioP1;P1;durP2;ratioP2;P2;SDS_P1;SDS_P2;PMS_P1;PMS_P2;Temp;Humidity;BMP_temperature;BMP_pressure;BME280_temperature;BME280_humidity;BME280_pressure;Samples;Min_cycle;Max_cycle;Signal;HPM_P1;HPM_P2
2023/05/28 00:02:10;;;;;;;12.85;4.30;;;16.40;88.80;;;;;;5018797;28;20033;-79
2023/05/28 00:04:36;;;;;;;9.57;4.57;;;16.40;88.90;;;;;;5017067;28;20062;-79
2023/05/28 00:07:02;;;;;;;11.55;5.10;;;16.40;89.30;;;;;;5012487;28;20418;-80
2023/05/28 00:09:30;;;;;;;12.07;4.65;;;16.30;89.40;;;;;;5012229;28;20057;-79
2023/05/28 00:11:56;;;;;;;12.73;4.57;;;16.30;89.20;;;;;;5011673;28;20531;-81
2023/05/28 00:14:22;;;;;;;9.27;4.45;;;16.30;89.90;;;;;;5018451;28;20462;-80
2023/05/28 00:16:50;;;;;;;10.55;4.82;;;16.30;90.00;;;;;;5018386;28;20533;-80
2023/05/28 00:19:19;;;;;;;13.65;4.57;;;16.30;90.10;;;;;;5018366;28;20030;-81
2023/05/28 00:21:44;;;;;;;12.40;4.32;;;16.30;90.20;;;;;;5011512;28;20053;-80
2023/05/28 00:24:10;;;;;;;19.55;4.35;;;16.20;90.00;;;;;;5016589;28;20488;-80
2023/05/28 00:26:37;;;;;;;9.63;4.43;;;16.20;90.40;;;;;;5018683;28;20273;-81
2023/05/28 00:29:02;;;;;;;14.05;4.18;;;16.20;90.40;;;;;;5017523;28;20151;-79
2023/05/28 00:31:28;;;;;;;11.52;5.22;;;16.10;90.50;;;;;;5010032;28;20053;-80
2023/05/28 00:33:54;;;;;;;12.85;4.55;;;16.10;90.60;;;;;;5010106;28;20107;-81
2023/05/28 00:36:19;;;;;;;17.65;4.78;;;16.00;90.40;;;;;;5009332;28;20515;-80
2023/05/28 00:38:45;;;;;;;18.83;5.18;;;16.00;90.80;;;;;;5011303;28;20029;-82
2023/05/28 00:41:11;;;;;;;13.70;5.13;;;16.00;90.80;;;;;;5014611;28;20115;-80
2023/05/28 00:43:36;;;;;;;12.30;4.97;;;16.00;90.90;;;;;;5010173;28;20041;-80
2023/05/28 00:46:08;;;;;;;16.83;4.85;;;16.00;90.90;;;;;;5013006;28;20080;-80
2023/05/28 00:48:33;;;;;;;12.57;5.13;;;16.00;91.00;;;;;;5134446;22;20396;-80
2023/05/28 00:50:59;;;;;;;17.58;5.30;;;15.90;91.50;;;;;;4999899;28;20014;-79
2023/05/28 00:53:25;;;;;;;12.10;4.85;;;15.90;91.20;;;;;;4998147;28;20466;-81
2023/05/28 00:55:52;;;;;;;12.50;4.25;;;15.80;91.30;;;;;;4999024;28;20042;-82
2023/05/28 00:58:19;;;;;;;14.68;4.72;;;15.90;91.40;;;;;;4997489;28;20021;-79
2023/05/28 01:00:45;;;;;;;8.50;4.57;;;15.80;91.60;;;;;;4997982;28;20083;-79
2023/05/28 01:03:14;;;;;;;14.18;5.45;;;15.80;91.60;;;;;;4999711;28;20053;-81
2023/05/28 01:05:39;;;;;;;12.73;5.00;;;15.70;91.60;;;;;;4998991;28;20486;-80
2023/05/28 01:08:06;;;;;;;15.40;4.75;;;15.60;92.00;;;;;;4998638;28;20037;-79
2023/05/28 01:10:33;;;;;;;15.68;4.85;;;15.60;92.10;;;;;;4998060;28;20022;-79
2023/05/28 01:13:02;;;;;;;9.30;4.40;;;15.60;92.20;;;;;;4999483;28;20399;-79
2023/05/28 01:15:27;;;;;;;17.63;4.72;;;15.60;92.10;;;;;;4988829;28;20034;-79
2023/05/28 01:18:01;;;;;;;11.25;4.78;;;15.60;92.40;;;;;;4999168;28;20477;-80
2023/05/28 01:20:28;;;;;;;14.20;4.68;;;15.50;92.50;;;;;;4993269;28;20017;-80
2023/05/28 01:23:01;;;;;;;11.20;4.75;;;15.50;92.70;;;;;;4996064;28;20030;-81
2023/05/28 01:25:27;;;;;;;17.23;4.90;;;15.50;92.60;;;;;;4998990;28;20018;-80
2023/05/28 01:27:53;;;;;;;12.32;4.72;;;15.50;92.70;;;;;;4993335;28;20053;-80
2023/05/28 01:30:20;;;;;;;10.20;4.70;;;15.40;92.80;;;;;;4992363;28;20091;-82
2023/05/28 01:32:45;;;;;;;12.15;5.32;;;15.40;92.50;;;;;;5000621;28;20121;-82
2023/05/28 01:35:12;;;;;;;9.15;4.78;;;15.40;92.90;;;;;;4991768;28;20434;-81
2023/05/28 01:37:48;;;;;;;14.13;4.88;;;15.30;93.20;;;;;;4999055;28;20152;-81
2023/05/28 01:40:15;;;;;;;12.05;4.40;;;15.30;93.40;;;;;;5000043;28;20105;-81
2023/05/28 01:42:40;;;;;;;12.48;5.50;;;15.30;93.40;;;;;;5002360;28;20037;-81
2023/05/28 01:45:10;;;;;;;9.63;4.28;;;15.30;93.50;;;;;;5000227;28;20096;-81
2023/05/28 01:47:36;;;;;;;12.45;5.07;;;15.20;93.60;;;;;;4991728;28;20042;-81
2023/05/28 01:50:02;;;;;;;11.05;5.10;;;15.20;93.40;;;;;;4996276;28;20030;-81
2023/05/28 01:52:28;;;;;;;13.20;5.30;;;15.10;93.50;;;;;;5001092;28;20026;-81
2023/05/28 01:54:54;;;;;;;16.90;5.60;;;15.10;93.80;;;;;;4999480;28;20033;-81
2023/05/28 01:57:19;;;;;;;14.93;5.43;;;15.10;93.80;;;;;;4999124;28;20026;-81
2023/05/28 01:59:45;;;;;;;10.35;4.70;;;15.10;94.10;;;;;;4999172;28;20100;-81
2023/05/28 02:02:10;;;;;;;15.77;5.28;;;15.10;94.20;;;;;;4999751;28;20385;-81
2023/05/28 02:04:36;;;;;;;10.18;5.07;;;15.10;94.00;;;;;;4998811;28;20026;-79
2023/05/28 02:07:02;;;;;;;12.93;5.78;;;15.00;94.40;;;;;;4997531;28;20521;-79
2023/05/28 02:09:27;;;;;;;14.07;5.38;;;14.90;94.90;;;;;;4996900;28;20022;-79
2023/05/28 02:11:53;;;;;;;12.23;5.55;;;14.80;95.30;;;;;;4996095;28;20502;-80
2023/05/28 02:14:18;;;;;;;18.95;6.60;;;14.70;95.50;;;;;;4997496;28;20030;-80
2023/05/28 02:16:48;;;;;;;15.70;6.03;;;14.70;95.40;;;;;;5006722;28;20482;-80
2023/05/28 02:19:14;;;;;;;12.40;5.57;;;14.60;95.70;;;;;;5000711;28;20385;-80
2023/05/28 02:21:40;;;;;;;14.20;5.43;;;14.60;95.70;;;;;;4998211;28;20041;-80
2023/05/28 02:24:06;;;;;;;12.48;5.55;;;14.70;95.70;;;;;;4992606;28;20022;-80
2023/05/28 02:26:32;;;;;;;19.85;6.13;;;14.60;95.70;;;;;;4995998;28;20038;-79
2023/05/28 02:28:58;;;;;;;17.20;6.68;;;14.60;96.00;;;;;;4999296;28;20396;-79
2023/05/28 02:31:23;;;;;;;15.82;5.82;;;14.60;96.10;;;;;;4998130;28;20025;-80
2023/05/28 02:33:49;;;;;;;13.38;5.30;;;14.60;95.90;;;;;;4998511;28;20033;-80
2023/05/28 02:36:15;;;;;;;13.05;5.40;;;14.60;96.10;;;;;;4997844;28;20350;-79
2023/05/28 02:38:42;;;;;;;16.60;5.07;;;14.60;96.30;;;;;;4997532;28;20033;-79
2023/05/28 02:41:08;;;;;;;12.38;5.40;;;14.50;96.20;;;;;;4998676;28;20022;-79
2023/05/28 02:43:34;;;;;;;12.57;5.47;;;14.50;96.60;;;;;;4996765;28;20090;-79
2023/05/28 02:45:59;;;;;;;14.48;5.85;;;14.50;96.60;;;;;;4995520;28;20786;-79
2023/05/28 02:48:25;;;;;;;14.85;5.13;;;14.50;96.80;;;;;;4999721;28;20132;-80
2023/05/28 02:50:51;;;;;;;16.70;5.63;;;14.40;96.60;;;;;;5002583;28;20022;-81
2023/05/28 02:53:20;;;;;;;13.95;5.55;;;14.50;96.80;;;;;;5002617;28;20385;-80
2023/05/28 02:55:46;;;;;;;15.27;6.03;;;14.40;97.10;;;;;;5001859;28;20143;-81
2023/05/28 02:58:12;;;;;;;13.98;5.88;;;14.40;96.80;;;;;;5003037;28;20555;-80
2023/05/28 03:00:38;;;;;;;13.45;5.60;;;14.40;96.60;;;;;;5001950;28;20025;-81
2023/05/28 03:03:04;;;;;;;20.15;6.35;;;14.30;97.10;;;;;;5000978;28;20036;-81
2023/05/28 03:05:31;;;;;;;13.93;5.78;;;14.30;96.90;;;;;;4994773;28;20026;-81
2023/05/28 03:07:57;;;;;;;16.10;5.97;;;14.30;97.50;;;;;;5001986;28;20509;-81
2023/05/28 03:10:23;;;;;;;21.98;5.97;;;14.30;97.40;;;;;;5002885;28;20125;-81
2023/05/28 03:12:48;;;;;;;19.10;6.10;;;14.20;97.70;;;;;;5000608;28;20101;-80
2023/05/28 03:15:14;;;;;;;15.90;6.63;;;14.20;97.70;;;;;;5001975;28;20028;-79
2023/05/28 03:17:40;;;;;;;18.50;5.90;;;14.20;97.90;;;;;;5003043;28;20127;-80
2023/05/28 03:20:10;;;;;;;18.60;6.80;;;14.20;97.90;;;;;;4998902;28;20422;-79
2023/05/28 03:22:38;;;;;;;15.20;6.18;;;14.20;98.00;;;;;;4998516;28;20032;-80
2023/05/28 03:25:05;;;;;;;13.38;6.05;;;14.20;98.00;;;;;;5002416;28;20037;-79
2023/05/28 03:27:31;;;;;;;14.60;5.95;;;14.10;98.20;;;;;;4998141;28;20092;-80
2023/05/28 03:29:57;;;;;;;16.85;5.47;;;14.10;98.30;;;;;;5002161;28;20040;-80
2023/05/28 03:32:23;;;;;;;14.70;6.07;;;14.00;98.30;;;;;;5000214;28;20034;-79
2023/05/28 03:34:48;;;;;;;17.08;6.57;;;14.10;98.80;;;;;;5002701;28;20021;-80
2023/05/28 03:37:16;;;;;;;15.43;6.55;;;14.10;98.80;;;;;;4999576;28;20032;-79
2023/05/28 03:39:43;;;;;;;16.33;6.63;;;14.10;98.90;;;;;;5000541;28;20030;-81
2023/05/28 03:42:08;;;;;;;19.88;6.25;;;14.00;98.80;;;;;;5002594;28;20991;-79
2023/05/28 03:44:34;;;;;;;14.73;6.78;;;14.00;99.00;;;;;;4997164;28;20022;-79
2023/05/28 03:47:00;;;;;;;14.05;6.07;;;14.00;98.90;;;;;;5000426;28;20402;-79
2023/05/28 03:49:26;;;;;;;15.70;5.80;;;14.00;99.00;;;;;;5000648;28;20674;-79
2023/05/28 03:51:51;;;;;;;18.85;6.10;;;14.00;99.20;;;;;;5001173;28;20096;-79
2023/05/28 03:54:17;;;;;;;17.50;6.03;;;14.00;99.30;;;;;;5002491;28;20037;-80
2023/05/28 03:56:43;;;;;;;9.70;5.93;;;13.90;99.50;;;;;;4999363;28;20091;-79
2023/05/28 03:59:08;;;;;;;14.50;6.45;;;13.90;99.30;;;;;;4998709;28;20022;-80
2023/05/28 04:01:35;;;;;;;13.48;6.18;;;13.90;99.40;;;;;;5002766;28;20676;-80
2023/05/28 04:04:01;;;;;;;15.80;6.30;;;14.00;99.50;;;;;;5002199;28;20041;-81
2023/05/28 04:06:27;;;;;;;12.90;6.00;;;14.00;99.80;;;;;;5139304;22;20107;-82
2023/05/28 04:08:52;;;;;;;17.05;6.03;;;14.00;99.90;;;;;;5010186;28;20030;-81
2023/05/28 04:11:18;;;;;;;10.60;6.50;;;14.00;99.90;;;;;;5005646;28;20025;-82
2023/05/28 04:13:44;;;;;;;14.80;6.53;;;14.00;99.90;;;;;;5007157;28;20405;-83
2023/05/28 04:16:10;;;;;;;14.88;6.13;;;14.10;99.90;;;;;;5011199;28;20059;-81
2023/05/28 04:18:35;;;;;;;19.48;6.97;;;14.10;99.90;;;;;;5002780;28;20026;-81
2023/05/28 04:21:01;;;;;;;15.93;6.63;;;14.10;99.90;;;;;;5144617;22;20049;-81
2023/05/28 04:23:26;;;;;;;16.00;6.35;;;14.10;99.90;;;;;;5026135;28;20048;-81
2023/05/28 04:25:53;;;;;;;17.15;7.63;;;14.10;99.90;;;;;;5016993;28;20028;-80
2023/05/28 04:28:19;;;;;;;18.67;6.32;;;14.10;99.90;;;;;;5010855;28;20040;-81
2023/05/28 04:30:45;;;;;;;16.42;6.05;;;14.20;99.90;;;;;;5012144;28;20471;-81
2023/05/28 04:33:10;;;;;;;18.80;7.82;;;14.30;99.90;;;;;;5009521;28;20018;-81
2023/05/28 04:35:36;;;;;;;14.40;6.93;;;14.40;99.90;;;;;;5008770;28;20091;-80
2023/05/28 04:38:02;;;;;;;14.57;6.50;;;14.40;99.90;;;;;;5009289;28;20063;-81
2023/05/28 04:40:27;;;;;;;18.63;6.80;;;14.40;99.70;;;;;;5013826;28;20291;-81
2023/05/28 04:42:55;;;;;;;17.98;7.32;;;14.40;99.70;;;;;;5012198;28;20021;-81
2023/05/28 04:45:20;;;;;;;16.40;6.82;;;14.40;99.80;;;;;;5010942;28;20036;-82
2023/05/28 04:47:47;;;;;;;12.70;6.57;;;14.50;99.80;;;;;;5014638;28;20041;-81
2023/05/28 04:50:13;;;;;;;21.20;7.32;;;14.60;99.80;;;;;;5013173;28;20058;-81
2023/05/28 04:52:38;;;;;;;18.27;7.28;;;14.60;99.60;;;;;;5007161;28;20521;-81
2023/05/28 04:55:05;;;;;;;21.60;7.10;;;14.70;99.70;;;;;;5009974;28;20075;-80
2023/05/28 04:57:32;;;;;;;15.57;6.85;;;14.70;99.70;;;;;;5014635;28;20033;-81
2023/05/28 04:59:58;;;;;;;19.33;7.53;;;14.70;99.70;;;;;;5014871;28;20643;-81
2023/05/28 05:02:24;;;;;;;19.60;6.85;;;14.70;99.60;;;;;;5010000;28;20037;-81
2023/05/28 05:04:50;;;;;;;13.48;6.68;;;14.60;99.70;;;;;;5013684;28;20023;-80
2023/05/28 05:07:16;;;;;;;14.95;8.07;;;14.70;99.80;;;;;;5012670;28;20442;-82
2023/05/28 05:09:42;;;;;;;20.05;7.13;;;14.70;99.90;;;;;;5009326;28;20618;-80
2023/05/28 05:12:08;;;;;;;17.48;7.10;;;14.80;99.80;;;;;;5010508;28;20714;-80
2023/05/28 05:14:34;;;;;;;15.85;6.65;;;14.90;99.80;;;;;;5008907;28;20029;-80
2023/05/28 05:17:01;;;;;;;15.60;7.05;;;15.00;99.70;;;;;;5009709;28;20485;-80
2023/05/28 05:19:27;;;;;;;18.30;8.10;;;15.10;99.60;;;;;;5013106;28;20024;-81
2023/05/28 05:21:52;;;;;;;22.55;7.35;;;15.20;99.50;;;;;;5010803;28;20473;-79
2023/05/28 05:24:18;;;;;;;18.00;6.97;;;15.20;99.40;;;;;;5015965;28;20093;-80
2023/05/28 05:26:44;;;;;;;16.15;6.78;;;15.30;99.40;;;;;;5007137;28;20049;-80
2023/05/28 05:29:09;;;;;;;21.33;7.38;;;15.40;99.40;;;;;;5012654;28;20041;-80
2023/05/28 05:31:35;;;;;;;17.60;7.43;;;15.50;99.30;;;;;;5011073;28;20558;-80
2023/05/28 05:34:01;;;;;;;14.57;7.35;;;15.60;99.10;;;;;;5005413;28;20053;-81
2023/05/28 05:36:30;;;;;;;15.15;6.50;;;15.60;99.50;;;;;;5013408;28;20442;-81
2023/05/28 05:38:57;;;;;;;12.65;6.95;;;15.70;99.10;;;;;;5015878;28;20025;-80
2023/05/28 05:41:23;;;;;;;15.10;6.97;;;15.80;99.20;;;;;;5011735;28;20037;-80
2023/05/28 05:43:48;;;;;;;22.48;7.38;;;15.80;99.10;;;;;;5015143;28;20041;-80
2023/05/28 05:46:14;;;;;;;12.60;7.65;;;15.80;99.20;;;;;;5011176;28;20026;-81
2023/05/28 05:48:40;;;;;;;23.98;8.48;;;15.90;98.90;;;;;;5008966;28;20032;-80
2023/05/28 05:51:06;;;;;;;14.73;7.22;;;16.00;98.80;;;;;;5011250;28;20030;-80
2023/05/28 05:53:31;;;;;;;16.70;7.30;;;16.10;98.70;;;;;;5013426;28;20473;-80
2023/05/28 05:55:57;;;;;;;13.93;7.15;;;16.20;98.50;;;;;;5009312;28;20027;-81
2023/05/28 05:58:23;;;;;;;14.82;7.35;;;16.30;98.30;;;;;;5008491;28;20032;-81
2023/05/28 06:00:48;;;;;;;20.05;7.25;;;16.40;98.40;;;;;;5008320;28;20052;-79
2023/05/28 06:03:14;;;;;;;19.60;6.75;;;16.50;98.30;;;;;;5009253;28;20021;-80
2023/05/28 06:05:40;;;;;;;16.67;7.15;;;16.60;98.30;;;;;;5010715;28;20033;-79
2023/05/28 06:08:06;;;;;;;16.15;7.43;;;16.70;98.20;;;;;;5011210;28;20081;-79
2023/05/28 06:10:32;;;;;;;15.27;7.90;;;16.70;98.00;;;;;;5015617;28;20045;-80
2023/05/28 06:13:01;;;;;;;16.83;7.13;;;16.80;98.20;;;;;;5008363;28;20082;-80
2023/05/28 06:15:28;;;;;;;17.70;7.53;;;16.90;98.10;;;;;;5006755;28;20113;-81
2023/05/28 06:17:55;;;;;;;17.15;8.27;;;17.00;97.80;;;;;;5009370;28;20529;-80
2023/05/28 06:20:21;;;;;;;15.85;6.72;;;17.10;97.80;;;;;;5009045;28;20477;-80
2023/05/28 06:22:46;;;;;;;16.75;7.43;;;17.20;97.70;;;;;;5013008;28;20041;-80
2023/05/28 06:25:12;;;;;;;14.43;6.97;;;17.20;97.60;;;;;;5019674;28;20045;-81
2023/05/28 06:27:38;;;;;;;18.33;7.53;;;17.40;97.60;;;;;;5018274;28;20041;-80
2023/05/28 06:30:04;;;;;;;15.20;6.82;;;17.50;97.50;;;;;;5020009;28;20021;-81
2023/05/28 06:32:31;;;;;;;20.77;7.03;;;17.60;97.50;;;;;;5017587;28;20159;-81
2023/05/28 06:34:57;;;;;;;20.45;7.25;;;17.70;97.20;;;;;;5022041;28;20109;-80
2023/05/28 06:37:22;;;;;;;22.90;7.38;;;17.80;97.00;;;;;;5017062;28;20033;-80
2023/05/28 06:39:50;;;;;;;20.48;7.65;;;17.90;96.80;;;;;;5012230;28;20400;-81
2023/05/28 06:42:16;;;;;;;14.98;6.70;;;18.00;96.70;;;;;;5013155;28;20029;-81
2023/05/28 06:44:42;;;;;;;277.55;119.93;;;18.10;96.50;;;;;;5017229;28;20026;-84
2023/05/28 06:47:07;;;;;;;58.78;22.17;;;18.20;96.30;;;;;;5017007;28;20049;-80
2023/05/28 06:49:33;;;;;;;17.52;7.55;;;18.30;95.90;;;;;;5017748;28;20033;-81
2023/05/28 06:51:58;;;;;;;20.52;7.43;;;18.50;95.70;;;;;;5009204;28;20033;-81
2023/05/28 06:54:24;;;;;;;18.70;7.18;;;18.50;95.70;;;;;;5022144;28;20529;-83
2023/05/28 06:56:50;;;;;;;11.18;5.82;;;18.60;95.40;;;;;;5018691;28;20029;-81
2023/05/28 06:59:16;;;;;;;14.63;6.53;;;18.80;95.20;;;;;;5026802;28;20388;-80
2023/05/28 07:01:41;;;;;;;15.75;6.57;;;18.90;95.50;;;;;;5012713;28;20497;-80
2023/05/28 07:04:07;;;;;;;16.77;6.57;;;19.10;94.80;;;;;;5017663;28;20037;-79
2023/05/28 07:06:33;;;;;;;27.77;6.50;;;19.30;94.40;;;;;;5016271;28;20734;-80
2023/05/28 07:08:59;;;;;;;15.93;5.82;;;19.40;93.70;;;;;;5011696;28;20145;-81
2023/05/28 07:11:26;;;;;;;275.77;125.68;;;19.40;93.50;;;;;;5018812;28;20460;-79
2023/05/28 07:13:54;;;;;;;387.67;163.48;;;19.50;93.80;;;;;;5012221;28;20489;-81
2023/05/28 07:16:20;;;;;;;14.70;5.40;;;19.60;93.30;;;;;;5010317;28;20112;-81
2023/05/28 07:18:46;;;;;;;14.18;5.63;;;19.70;92.90;;;;;;5013180;28;20183;-81
2023/05/28 07:21:12;;;;;;;15.98;6.20;;;19.90;92.70;;;;;;5008174;28;20045;-81
2023/05/28 07:23:37;;;;;;;16.70;6.00;;;20.10;92.90;;;;;;5013463;28;20029;-81
2023/05/28 07:26:03;;;;;;;14.52;5.53;;;20.30;92.70;;;;;;5012511;28;20042;-81
2023/05/28 07:28:29;;;;;;;16.58;6.13;;;20.30;92.10;;;;;;5008415;28;20401;-81
2023/05/28 07:30:56;;;;;;;15.32;5.65;;;20.50;91.90;;;;;;5013380;28;20034;-81
2023/05/28 07:33:21;;;;;;;15.48;5.68;;;20.60;91.30;;;;;;5008948;28;20029;-82
2023/05/28 07:35:47;;;;;;;12.88;5.18;;;20.70;91.00;;;;;;5014394;28;20028;-80
2023/05/28 07:38:14;;;;;;;8.65;5.35;;;20.80;90.90;;;;;;5009752;28;20065;-81
2023/05/28 07:40:40;;;;;;;13.70;5.22;;;21.00;90.90;;;;;;5018016;28;20063;-81
2023/05/28 07:43:06;;;;;;;13.73;5.32;;;21.20;90.40;;;;;;5011189;28;20072;-80
2023/05/28 07:45:31;;;;;;;17.80;6.30;;;21.30;90.20;;;;;;5009257;28;20033;-83
2023/05/28 07:47:57;;;;;;;97.85;41.08;;;21.40;89.30;;;;;;5023138;28;20030;-84
2023/05/28 07:50:23;;;;;;;60.10;22.90;;;21.30;88.40;;;;;;5014987;28;20065;-84
2023/05/28 07:52:49;;;;;;;10.43;4.95;;;21.30;88.80;;;;;;5017195;28;20028;-81
2023/05/28 07:55:15;;;;;;;12.23;5.47;;;21.40;88.40;;;;;;5012138;28;20180;-82
2023/05/28 07:57:40;;;;;;;11.73;4.93;;;21.30;87.70;;;;;;5016797;28;20126;-81
2023/05/28 08:00:10;;;;;;;11.57;4.72;;;21.40;87.30;;;;;;5017467;28;20029;-83
2023/05/28 08:02:35;;;;;;;12.60;4.38;;;21.40;87.80;;;;;;5010917;28;20033;-81
2023/05/28 08:05:01;;;;;;;12.80;4.82;;;21.40;87.60;;;;;;5012757;28;20026;-80
2023/05/28 08:07:28;;;;;;;11.15;4.78;;;21.40;87.80;;;;;;5016021;28;20053;-83
2023/05/28 08:09:56;;;;;;;10.43;4.78;;;21.50;87.40;;;;;;5017998;28;20032;-82
2023/05/28 08:12:21;;;;;;;8.93;4.93;;;21.80;86.80;;;;;;5019084;28;20041;-81
2023/05/28 08:14:47;;;;;;;9.50;4.40;;;22.10;85.70;;;;;;5011950;28;20580;-79
2023/05/28 08:17:12;;;;;;;8.63;4.30;;;22.60;85.70;;;;;;5007358;28;20117;-80
2023/05/28 08:19:38;;;;;;;12.43;4.28;;;23.10;82.30;;;;;;5009473;28;20101;-81
2023/05/28 08:22:04;;;;;;;11.00;4.65;;;23.40;81.30;;;;;;5009402;28;20026;-82
2023/05/28 08:24:30;;;;;;;9.82;4.05;;;23.70;79.40;;;;;;5014453;28;20119;-80
2023/05/28 08:26:56;;;;;;;15.35;5.43;;;24.00;78.40;;;;;;5010069;28;20022;-81
2023/05/28 08:29:24;;;;;;;10.00;4.90;;;24.30;76.90;;;;;;5007857;28;20034;-81
2023/05/28 08:31:50;;;;;;;15.80;5.20;;;24.40;77.60;;;;;;5018328;28;20041;-82
2023/05/28 08:34:16;;;;;;;12.18;4.95;;;24.70;74.20;;;;;;5018345;28;20056;-81
2023/05/28 08:36:45;;;;;;;11.32;4.57;;;25.10;73.00;;;;;;5010065;28;20030;-84
2023/05/28 08:39:11;;;;;;;10.05;4.15;;;25.70;72.80;;;;;;5028156;28;20458;-80
2023/05/28 08:41:39;;;;;;;11.10;5.00;;;26.00;70.30;;;;;;5009659;28;20389;-82
2023/05/28 08:44:05;;;;;;;12.98;4.47;;;26.10;69.10;;;;;;5014016;28;20017;-81
2023/05/28 08:46:32;;;;;;;14.18;3.95;;;26.30;71.30;;;;;;5009141;28;20480;-81
2023/05/28 08:48:58;;;;;;;12.25;4.35;;;26.40;67.20;;;;;;5014734;28;20045;-84
2023/05/28 08:51:27;;;;;;;10.90;4.20;;;26.70;66.00;;;;;;5010745;28;20121;-81
2023/05/28 08:53:54;;;;;;;7.35;3.75;;;26.90;66.40;;;;;;5011211;28;20049;-82
2023/05/28 08:56:21;;;;;;;11.85;4.60;;;26.80;65.30;;;;;;5015950;28;20034;-83
2023/05/28 08:58:47;;;;;;;7.00;4.05;;;27.10;63.40;;;;;;5013001;28;20041;-83
2023/05/28 09:01:13;;;;;;;8.88;4.10;;;27.20;62.60;;;;;;5007913;28;20024;-81
2023/05/28 09:03:40;;;;;;;11.48;4.38;;;27.40;63.10;;;;;;5008836;28;20485;-83
2023/05/28 09:06:07;;;;;;;8.77;3.58;;;27.40;61.30;;;;;;5013173;28;20017;-80
2023/05/28 09:08:33;;;;;;;8.52;4.18;;;27.30;61.70;;;;;;5007128;28;20457;-81
2023/05/28 09:11:13;;;;;;;12.95;3.55;;;27.20;61.40;;;;;;5011586;28;20053;-80
2023/05/28 09:13:47;;;;;;;9.30;3.92;;;27.20;60.40;;;;;;5005413;28;20032;-80
2023/05/28 09:16:23;;;;;;;7.90;3.92;;;27.10;60.90;;;;;;5006641;28;20390;-80
2023/05/28 09:18:50;;;;;;;10.68;3.90;;;27.10;60.20;;;;;;5005932;28;20026;-81
2023/05/28 09:21:16;;;;;;;8.07;3.75;;;27.20;62.30;;;;;;5007823;28;20079;-81
2023/05/28 09:23:44;;;;;;;9.88;4.07;;;27.40;60.20;;;;;;5018072;28;20033;-81
2023/05/28 09:26:09;;;;;;;14.65;4.18;;;27.70;59.60;;;;;;5005322;28;20065;-81
2023/05/28 09:28:35;;;;;;;6.63;3.50;;;28.00;58.50;;;;;;5006602;28;20381;-81
2023/05/28 09:31:05;;;;;;;7.63;3.63;;;28.30;57.20;;;;;;5010754;28;20522;-82
2023/05/28 09:33:32;;;;;;;10.35;3.80;;;28.40;58.10;;;;;;5008885;28;20022;-81
2023/05/28 09:36:00;;;;;;;8.07;3.40;;;28.50;57.50;;;;;;5006753;28;20112;-81
2023/05/28 09:38:27;;;;;;;9.02;4.03;;;28.60;57.00;;;;;;5007912;28;20017;-81
2023/05/28 09:40:56;;;;;;;6.97;3.53;;;28.90;55.90;;;;;;5013425;28;20541;-81
2023/05/28 09:43:31;;;;;;;9.35;3.72;;;28.90;56.30;;;;;;5005990;28;20123;-81
2023/05/28 09:46:07;;;;;;;9.70;4.15;;;29.20;55.50;;;;;;5008360;28;20049;-83
2023/05/28 09:48:33;;;;;;;9.38;3.72;;;29.20;56.60;;;;;;5010318;28;20433;-80
2023/05/28 09:51:02;;;;;;;7.60;3.95;;;29.20;55.10;;;;;;5008767;28;20017;-80
2023/05/28 09:53:30;;;;;;;7.78;3.83;;;29.40;55.70;;;;;;5010773;28;20067;-80
2023/05/28 09:55:59;;;;;;;8.30;3.80;;;29.60;55.20;;;;;;5005480;28;20585;-80
2023/05/28 09:58:31;;;;;;;12.18;4.25;;;29.50;54.80;;;;;;5005674;28;20515;-80
2023/05/28 10:01:00;;;;;;;9.02;4.30;;;29.40;54.50;;;;;;5005191;28;20073;-83
2023/05/28 10:03:38;;;;;;;13.07;4.88;;;29.20;54.20;;;;;;5004689;28;20042;-82
2023/05/28 10:06:11;;;;;;;10.30;3.88;;;28.60;54.80;;;;;;5005254;28;20088;-81
2023/05/28 10:08:38;;;;;;;8.55;4.15;;;28.00;55.10;;;;;;5007336;28;20034;-82
2023/05/28 10:11:10;;;;;;;7.40;3.85;;;27.60;55.90;;;;;;5007722;28;20059;-81
2023/05/28 10:13:36;;;;;;;8.60;3.42;;;28.00;56.60;;;;;;5012571;28;20057;-81
2023/05/28 10:16:03;;;;;;;8.90;4.15;;;28.80;57.00;;;;;;5010195;28;20474;-81
2023/05/28 10:18:29;;;;;;;10.95;4.25;;;29.70;55.70;;;;;;5009567;28;20032;-82
2023/05/28 10:20:57;;;;;;;11.10;3.97;;;30.40;54.60;;;;;;5011243;28;20033;-81
2023/05/28 10:23:24;;;;;;;5.50;3.75;;;30.70;54.00;;;;;;5009434;28;20017;-82
2023/05/28 10:25:50;;;;;;;9.82;3.95;;;30.90;53.00;;;;;;5010139;28;20022;-82
2023/05/28 10:28:16;;;;;;;5.43;3.40;;;30.60;50.90;;;;;;5010082;28;20077;-81
2023/05/28 10:30:44;;;;;;;6.60;3.40;;;30.40;52.20;;;;;;5008299;28;20026;-82
2023/05/28 10:33:17;;;;;;;9.77;3.72;;;29.80;51.90;;;;;;5014476;28;20614;-82
2023/05/28 10:35:53;;;;;;;;;;;29.50;51.90;;;;;;5015427;28;20083;-80
2023/05/28 10:38:18;;;;;;;11.65;4.32;;;29.20;52.80;;;;;;5014843;28;19905;-82
2023/05/28 10:40:44;;;;;;;6.90;4.47;;;29.00;53.40;;;;;;5002203;28;20018;-83
2023/05/28 10:43:38;;;;;;;8.23;4.20;;;28.80;53.50;;;;;;5006744;28;20389;-82
2023/05/28 10:46:16;;;;;;;11.13;4.47;;;28.80;54.10;;;;;;5005659;28;20366;-81
2023/05/28 10:49:08;;;;;;;8.60;4.35;;;29.10;55.20;;;;;;5009747;28;20107;-82
2023/05/28 10:51:43;;;;;;;12.35;3.95;;;29.60;53.70;;;;;;4990761;28;20094;-82
2023/05/28 10:54:34;;;;;;;9.93;4.25;;;30.40;53.10;;;;;;4988719;28;20486;-82
2023/05/28 10:57:20;;;;;;;13.23;4.72;;;30.70;55.30;;;;;;4990297;28;20040;-82
2023/05/28 11:00:00;;;;;;;11.55;3.97;;;30.70;53.20;;;;;;4987382;28;20083;-83
2023/05/28 11:02:27;;;;;;;9.13;4.53;;;30.50;52.60;;;;;;4989124;28;20414;-82
2023/05/28 11:04:55;;;;;;;15.50;4.40;;;30.50;52.60;;;;;;4992455;28;20088;-80
2023/05/28 11:07:22;;;;;;;12.50;4.82;;;30.60;53.80;;;;;;4986599;28;20050;-82
2023/05/28 11:09:50;;;;;;;17.80;4.55;;;30.70;53.20;;;;;;4993388;28;20332;-82
2023/05/28 11:12:16;;;;;;;12.68;4.05;;;30.70;53.00;;;;;;4999742;28;20096;-83
2023/05/28 11:14:43;;;;;;;9.75;4.13;;;30.70;52.90;;;;;;4992274;28;20101;-84
2023/05/28 11:17:11;;;;;;;14.27;4.70;;;30.50;52.80;;;;;;4993696;28;20077;-80
2023/05/28 11:19:44;;;;;;;9.27;4.07;;;30.30;51.90;;;;;;4992776;28;20601;-80
2023/05/28 11:22:13;;;;;;;10.45;3.78;;;30.00;52.70;;;;;;4988930;28;20410;-81
2023/05/28 11:24:51;;;;;;;11.95;4.45;;;30.10;53.30;;;;;;4989923;28;20034;-80
2023/05/28 11:27:17;;;;;;;12.57;4.55;;;30.10;53.10;;;;;;4992226;28;20018;-81
2023/05/28 11:29:45;;;;;;;6.93;4.35;;;30.30;53.20;;;;;;4991879;28;20577;-81
2023/05/28 11:32:13;;;;;;;14.10;4.30;;;30.10;53.20;;;;;;4994018;28;20105;-81
2023/05/28 11:34:39;;;;;;;10.73;4.80;;;30.20;52.80;;;;;;4988008;28;20061;-80
2023/05/28 11:37:05;;;;;;;13.77;4.60;;;30.40;51.90;;;;;;4997544;28;20570;-81
2023/05/28 11:39:31;;;;;;;10.85;4.25;;;30.30;52.60;;;;;;4992866;28;20018;-81
2023/05/28 11:41:56;;;;;;;13.57;4.10;;;30.60;52.30;;;;;;4990712;28;20507;-81
2023/05/28 11:44:23;;;;;;;9.85;4.28;;;30.50;51.40;;;;;;4992683;28;20498;-81
2023/05/28 11:46:56;;;;;;;8.38;3.75;;;30.60;51.70;;;;;;4992402;28;20117;-81
2023/05/28 11:49:22;;;;;;;9.07;4.18;;;30.80;50.90;;;;;;4990442;28;20502;-83
2023/05/28 11:51:51;;;;;;;9.55;4.20;;;30.90;50.80;;;;;;4997520;28;20038;-81
2023/05/28 11:54:17;;;;;;;11.63;4.45;;;30.90;50.00;;;;;;4987929;28;20092;-82
2023/05/28 11:56:42;;;;;;;9.70;4.18;;;30.80;50.90;;;;;;4991194;28;20481;-81
2023/05/28 11:59:09;;;;;;;7.00;4.28;;;30.70;50.20;;;;;;4993017;28;20018;-82
2023/05/28 12:01:35;;;;;;;14.07;5.10;;;31.00;51.10;;;;;;4987989;28;20879;-81
2023/05/28 12:04:05;;;;;;;9.68;4.15;;;31.10;49.70;;;;;;4996903;28;20109;-82
2023/05/28 12:06:32;;;;;;;4.68;3.80;;;31.00;49.90;;;;;;4992554;28;20029;-83
2023/05/28 12:09:05;;;;;;;7.05;3.63;;;31.10;50.50;;;;;;4992560;28;20758;-81
2023/05/28 12:11:33;;;;;;;10.63;4.50;;;30.80;50.90;;;;;;4990745;28;20030;-82
2023/05/28 12:14:11;;;;;;;10.70;4.38;;;30.70;50.50;;;;;;4992250;28;20029;-83
2023/05/28 12:16:47;;;;;;;12.82;3.88;;;30.70;50.60;;;;;;4992685;28;20231;-81
2023/05/28 12:19:15;;;;;;;5.47;3.53;;;30.80;50.90;;;;;;4990759;28;20024;-82
2023/05/28 12:21:41;;;;;;;10.05;4.20;;;31.10;49.60;;;;;;4994708;28;20034;-82
2023/05/28 12:24:14;;;;;;;8.73;4.28;;;31.20;50.40;;;;;;4995511;28;20029;-82
2023/05/28 12:26:41;;;;;;;6.68;3.67;;;30.90;50.00;;;;;;4992164;28;20104;-81
2023/05/28 12:29:06;;;;;;;11.32;4.63;;;31.10;50.10;;;;;;4992114;28;20470;-82
2023/05/28 12:31:32;;;;;;;11.38;4.10;;;31.00;49.50;;;;;;4999891;28;20030;-82
2023/05/28 12:33:58;;;;;;;8.32;3.58;;;31.10;49.20;;;;;;4998442;28;20022;-81
2023/05/28 12:36:23;;;;;;;10.65;4.00;;;31.00;49.20;;;;;;4997380;28;20064;-82
2023/05/28 12:38:49;;;;;;;7.60;3.83;;;30.50;49.30;;;;;;4996870;28;20469;-81